• Join FlightAware (Why Join?)
  • Login
  • US Flag 
04:55AM EST


 

Airport Tracker/Info


-or-


 

Live Flight TrackerFlight Track Log ✈ KFS724 ✈ 24/04/2013 ✈ CYQG - KYIP

Flight Track Log - Related Links

Times and Time Zones

All times are in EDT time to prevent confusion due to time zone crossing. See the KFS724 flight status page for this flight to view local times or setup timezone preferences in your user account.

Time Position Orientation Groundspeed Altitude Reporting Facility
EDT Latitude Longitude Course Direction KTS MPH feet Rate Location/Type
01:42PM 42.2700 -82.9772 236° Southwest 157 181 1,800  Level FAA TRACON SMA TRACON (SMA)
01:43PM 42.2553 -83.0069 236° Southwest 196 226 2,900 2,040 Climbing Cleveland Center
01:44PM 42.2142 -83.0811 233° Southwest 248 285 4,700 1,080 Climbing Cleveland Center
01:45PM 42.1883 -83.1406 240° Southwest 229 264 5,000 240 Climbing FAA TRACON SMA TRACON (SMA)
01:45PM 42.1842 -83.1739 260° West 236 272 5,000  Level FAA TRACON SMA TRACON (SMA)
01:45PM 42.1800 -83.1997 258° West 233 268 5,000  Level FAA TRACON SMA TRACON (SMA)
01:46PM 42.1767 -83.2261 260° West 230 265 5,000  Level FAA TRACON SMA TRACON (SMA)
01:46PM 42.1722 -83.2597 260° West 235 270 5,000  Level FAA TRACON SMA TRACON (SMA)
01:46PM 42.1681 -83.2878 259° West 245 282 5,000  Level FAA TRACON SMA TRACON (SMA)
01:47PM 42.1633 -83.3164 257° West 252 290 5,000 -180 Level FAA TRACON SMA TRACON (SMA)
01:47PM 42.1581 -83.3500 258° West 240 276 4,900  Descending FAA TRACON SMA TRACON (SMA)
01:47PM 42.1628 -83.3733 285° West 221 254 5,000  Climbing FAA TRACON SMA TRACON (SMA)
01:48PM 42.1703 -83.4019 289° West 207 238 4,900  Descending FAA TRACON SMA TRACON (SMA)
01:48PM 42.1869 -83.4461 297° West 214 246 5,000 60 Climbing FAA TRACON SMA TRACON (SMA)
01:49PM 42.1989 -83.4703 304° West 229 264 5,000  Level FAA TRACON SMA TRACON (SMA)
01:49PM 42.2086 -83.4925 261° West 226 260 5,000  Level FAA TRACON SMA TRACON (SMA)
01:49PM 42.2200 -83.5219 298° West 228 262 5,000 -180 Level FAA TRACON SMA TRACON (SMA)
01:50PM 42.2281 -83.5464 294° West 230 265 4,900 -720 Descending FAA TRACON SMA TRACON (SMA)
01:50PM 42.2219 -83.6083 262° West 248 285 4,300 -840 Descending FAA TRACON SMA TRACON (SMA)
01:51PM 42.2203 -83.6350 265° West 237 273 4,100 -300 Descending FAA TRACON SMA TRACON (SMA)
01:51PM 42.2189 -83.6619 266° West 235 270 4,100 -180 Level FAA TRACON SMA TRACON (SMA)
01:51PM 42.2175 -83.6947 267° West 230 265 4,000 -480 Descending FAA TRACON SMA TRACON (SMA)
01:52PM 42.2142 -83.7189 259° West 228 262 3,800 -780 Descending FAA TRACON SMA TRACON (SMA)
01:52PM 42.2039 -83.7408 238° Southwest 216 249 3,500 -780 Descending FAA TRACON SMA TRACON (SMA)
01:52PM 42.1919 -83.7672 239° Southwest 207 238 3,300 -480 Descending FAA TRACON SMA TRACON (SMA)
01:53PM 42.1825 -83.7861 236° Southwest 201 231 3,200 -300 Descending FAA TRACON SMA TRACON (SMA)
01:53PM 42.1661 -83.7925 196° South 214 246 3,100 -300 Descending FAA TRACON SMA TRACON (SMA)